createdAt,value
2022-10-18T00:01:10.043Z,22.35
2022-10-18T00:03:38.823Z,18.52
2022-10-18T00:06:09.423Z,18.30
2022-10-18T00:08:39.140Z,18.92
2022-10-18T00:11:08.218Z,19.80
2022-10-18T00:13:36.069Z,22.58
2022-10-18T00:16:06.620Z,21.98
2022-10-18T00:18:34.994Z,26.45
2022-10-18T00:21:13.375Z,24.50
2022-10-18T00:23:42.085Z,24.20
2022-10-18T00:26:22.770Z,25.50
2022-10-18T00:28:54.077Z,25.10
2022-10-18T00:31:23.425Z,19.45
2022-10-18T00:34:06.509Z,23.05
2022-10-18T00:36:34.988Z,30.20
2022-10-18T00:39:05.369Z,27.27
2022-10-18T00:41:38.329Z,23.15
2022-10-18T00:44:26.866Z,30.52
2022-10-18T00:47:01.815Z,21.02
2022-10-18T00:50:02.288Z,23.15
2022-10-18T00:52:41.170Z,26.17
2022-10-18T00:55:10.732Z,23.33
2022-10-18T00:57:43.631Z,21.05
2022-10-18T01:00:13.140Z,23.25
2022-10-18T01:02:43.050Z,26.58
2022-10-18T01:05:16.606Z,22.40
2022-10-18T01:08:05.308Z,22.50
2022-10-18T01:10:48.255Z,23.00
2022-10-18T01:13:47.125Z,19.65
2022-10-18T01:16:26.991Z,21.60
2022-10-18T01:19:01.181Z,13.57
2022-10-18T01:21:54.222Z,13.77
2022-10-18T01:24:45.966Z,18.53
2022-10-18T01:27:31.247Z,21.25
2022-10-18T01:30:20.879Z,18.62
2022-10-18T01:32:55.040Z,20.98
2022-10-18T01:35:30.320Z,21.52
2022-10-18T01:38:03.908Z,22.23
2022-10-18T01:40:32.985Z,25.70
2022-10-18T01:43:02.922Z,22.67
2022-10-18T01:45:32.140Z,23.42
2022-10-18T01:48:01.140Z,22.52
2022-10-18T01:50:31.953Z,23.87
2022-10-18T01:53:03.403Z,24.12
2022-10-18T01:55:39.545Z,19.10
2022-10-18T01:58:30.350Z,25.02
2022-10-18T02:01:09.193Z,28.25
2022-10-18T02:03:42.777Z,26.20
2022-10-18T02:06:20.589Z,22.83
2022-10-18T02:09:03.964Z,23.25
2022-10-18T02:11:33.561Z,22.37
2022-10-18T02:14:08.837Z,23.15
2022-10-18T02:16:49.544Z,24.77
2022-10-18T02:22:01.549Z,35.05
2022-10-18T02:24:37.403Z,23.98
2022-10-18T02:27:05.448Z,23.83
2022-10-18T02:29:34.703Z,23.92
2022-10-18T02:32:26.141Z,23.02
2022-10-18T02:35:02.580Z,26.35
2022-10-18T02:37:35.594Z,19.40
2022-10-18T02:40:06.324Z,21.95
2022-10-18T02:42:39.934Z,25.73
2022-10-18T02:45:08.454Z,22.40
2022-10-18T02:47:36.420Z,28.48
2022-10-18T02:50:04.567Z,26.37
2022-10-18T02:52:32.846Z,21.90
2022-10-18T02:55:01.628Z,21.75
2022-10-18T02:57:31.328Z,20.75
2022-10-18T02:59:59.955Z,21.17
2022-10-18T03:02:27.903Z,20.88
2022-10-18T03:04:55.849Z,20.05
2022-10-18T03:07:24.307Z,24.80
2022-10-18T03:09:52.339Z,19.95
2022-10-18T03:12:20.317Z,21.02
2022-10-18T03:14:48.523Z,21.33
2022-10-18T03:17:16.505Z,22.92
2022-10-18T03:19:44.195Z,21.08
2022-10-18T03:22:12.542Z,18.02
2022-10-18T03:24:40.200Z,18.05
2022-10-18T03:27:08.162Z,17.12
2022-10-18T03:29:36.242Z,19.80
2022-10-18T03:32:04.229Z,19.08
2022-10-18T03:34:31.973Z,16.30
2022-10-18T03:37:03.375Z,20.20
2022-10-18T03:39:33.850Z,15.05
2022-10-18T03:42:05.272Z,20.83
2022-10-18T03:44:33.175Z,16.70
2022-10-18T03:47:00.995Z,16.48
2022-10-18T03:49:29.289Z,22.87
2022-10-18T03:51:57.206Z,18.75
2022-10-18T03:54:25.011Z,18.15
2022-10-18T03:56:56.359Z,16.55
2022-10-18T03:59:24.196Z,15.82
2022-10-18T04:01:52.111Z,17.33
2022-10-18T04:04:20.583Z,17.80
2022-10-18T04:06:48.420Z,17.87
2022-10-18T04:09:16.474Z,18.15
2022-10-18T04:11:44.748Z,16.23
2022-10-18T04:14:12.467Z,14.87
2022-10-18T04:16:40.283Z,18.30
2022-10-18T04:19:08.624Z,21.85
2022-10-18T04:21:36.976Z,18.20
2022-10-18T04:24:05.126Z,22.30
2022-10-18T04:26:33.378Z,15.57
2022-10-18T04:29:01.257Z,18.42
2022-10-18T04:31:29.184Z,18.08
2022-10-18T04:33:57.254Z,15.30
2022-10-18T04:36:25.158Z,18.15
2022-10-18T04:38:52.974Z,16.95
2022-10-18T04:41:21.250Z,17.92
2022-10-18T04:43:49.262Z,15.75
2022-10-18T04:46:17.129Z,19.77
2022-10-18T04:48:45.415Z,17.75
2022-10-18T04:51:13.324Z,16.60
2022-10-18T04:53:41.149Z,13.02
2022-10-18T04:56:09.462Z,12.43
2022-10-18T04:58:37.244Z,12.90
2022-10-18T05:01:06.949Z,16.50
2022-10-18T05:03:35.432Z,15.55
2022-10-18T05:06:03.671Z,14.40
2022-10-18T05:08:33.231Z,14.50
2022-10-18T05:11:04.856Z,13.27
2022-10-18T05:13:33.510Z,16.50
2022-10-18T05:16:02.818Z,19.12
2022-10-18T05:18:30.895Z,15.40
2022-10-18T05:20:59.034Z,13.90
2022-10-18T05:23:27.231Z,13.18
2022-10-18T05:25:55.352Z,14.45
2022-10-18T05:28:39.297Z,17.00
2022-10-18T05:31:12.021Z,17.17
2022-10-18T05:33:40.512Z,15.35
2022-10-18T05:36:08.801Z,19.37
2022-10-18T05:38:43.482Z,15.48
2022-10-18T05:41:13.040Z,20.30
2022-10-18T05:43:41.490Z,18.15
2022-10-18T05:46:14.522Z,13.55
2022-10-18T05:48:45.055Z,18.00
2022-10-18T05:51:12.863Z,18.15
2022-10-18T05:53:40.557Z,21.77
2022-10-18T05:56:14.839Z,15.13
2022-10-18T05:58:43.340Z,15.75
2022-10-18T06:01:11.583Z,13.18
2022-10-18T06:03:39.896Z,17.02
2022-10-18T06:06:10.281Z,15.70
2022-10-18T06:08:43.050Z,16.30
2022-10-18T06:11:14.832Z,15.95
2022-10-18T06:13:44.699Z,14.98
2022-10-18T06:16:14.448Z,16.67
2022-10-18T06:18:42.669Z,18.85
2022-10-18T06:21:13.319Z,14.55
2022-10-18T06:23:41.535Z,16.92
2022-10-18T06:26:11.851Z,15.60
2022-10-18T06:28:39.785Z,14.73
2022-10-18T06:31:08.108Z,14.30
2022-10-18T06:33:37.430Z,14.05
2022-10-18T06:36:08.843Z,16.05
2022-10-18T06:38:40.124Z,16.08
2022-10-18T06:41:09.242Z,16.70
2022-10-18T06:43:37.705Z,15.68
2022-10-18T06:46:08.382Z,14.20
2022-10-18T06:48:37.050Z,14.10
2022-10-18T06:51:07.120Z,17.85
2022-10-18T06:53:43.907Z,18.05
2022-10-18T06:56:22.204Z,18.10
2022-10-18T06:58:50.176Z,13.88
2022-10-18T07:01:18.827Z,17.20
2022-10-18T07:03:49.047Z,13.88
2022-10-18T07:06:19.022Z,17.52
2022-10-18T07:08:49.157Z,18.37
2022-10-18T07:11:27.940Z,12.50
2022-10-18T07:14:05.105Z,10.00
2022-10-18T07:16:34.171Z,12.02
2022-10-18T07:19:02.828Z,13.95
2022-10-18T07:21:30.762Z,12.68
2022-10-18T07:23:58.575Z,13.18
2022-10-18T07:26:35.049Z,16.02
2022-10-18T07:29:08.476Z,12.80
2022-10-18T07:31:38.873Z,13.27
2022-10-18T07:34:07.974Z,12.00
2022-10-18T07:36:36.111Z,10.60
2022-10-18T07:39:07.123Z,15.85
2022-10-18T07:41:35.009Z,12.30
2022-10-18T07:44:04.564Z,11.15
2022-10-18T07:46:32.836Z,12.95
2022-10-18T07:49:00.701Z,13.18
2022-10-18T07:51:29.100Z,13.95
2022-10-18T07:53:56.919Z,8.48
2022-10-18T07:56:24.715Z,11.25
2022-10-18T07:58:55.935Z,18.33
2022-10-18T08:01:25.180Z,10.80
2022-10-18T08:03:54.021Z,10.65
2022-10-18T08:06:23.501Z,13.75
2022-10-18T08:08:51.333Z,10.90
2022-10-18T08:11:21.953Z,15.15
2022-10-18T08:13:50.009Z,7.93
2022-10-18T08:16:28.894Z,10.48
2022-10-18T08:18:58.711Z,13.02
2022-10-18T08:21:27.216Z,9.52
2022-10-18T08:23:55.397Z,12.73
2022-10-18T08:26:23.988Z,11.20
2022-10-18T08:29:10.310Z,12.32
2022-10-18T08:31:40.643Z,10.15
2022-10-18T08:34:08.426Z,12.13
2022-10-18T08:36:36.268Z,10.20
2022-10-18T08:39:05.219Z,12.20
2022-10-18T08:41:33.119Z,14.43
2022-10-18T08:44:28.001Z,13.77
2022-10-18T08:47:02.505Z,10.50
2022-10-18T08:49:35.246Z,12.70
2022-10-18T08:52:17.376Z,11.30
2022-10-18T08:55:10.343Z,9.27
2022-10-18T08:57:38.661Z,14.52
2022-10-18T09:00:30.545Z,9.90
2022-10-18T09:03:32.235Z,10.88
2022-10-18T09:06:33.419Z,10.07
2022-10-18T09:09:20.484Z,9.80
2022-10-18T09:11:58.039Z,13.52
2022-10-18T09:14:38.824Z,7.97
2022-10-18T09:17:28.781Z,12.02
2022-10-18T09:20:17.252Z,9.32
2022-10-18T09:23:20.508Z,10.38
2022-10-18T09:25:53.262Z,8.50
2022-10-18T09:28:30.882Z,10.18
2022-10-18T09:31:28.429Z,8.93
2022-10-18T09:34:03.350Z,11.77
2022-10-18T09:36:38.197Z,9.18
2022-10-18T09:39:15.895Z,9.55
2022-10-18T09:41:52.796Z,10.88
2022-10-18T09:44:37.004Z,11.50
2022-10-18T09:47:21.745Z,13.25
2022-10-18T09:50:02.135Z,12.18
2022-10-18T09:52:42.899Z,13.27
2022-10-18T09:55:27.918Z,10.95
2022-10-18T09:58:02.937Z,10.75
2022-10-18T10:00:35.487Z,8.43
2022-10-18T10:03:15.044Z,11.93
2022-10-18T10:05:43.788Z,10.07
2022-10-18T10:08:12.299Z,10.80
2022-10-18T10:10:42.074Z,9.02
2022-10-18T10:13:23.246Z,11.38
2022-10-18T10:16:02.497Z,11.98
2022-10-18T10:18:33.864Z,11.05
2022-10-18T10:21:06.189Z,14.15
2022-10-18T10:23:39.441Z,7.90
2022-10-18T10:26:25.932Z,9.40
2022-10-18T10:31:38.757Z,9.80
2022-10-18T10:34:13.268Z,9.23
2022-10-18T10:36:52.846Z,7.53
2022-10-18T10:39:23.534Z,7.80
2022-10-18T10:41:59.084Z,6.72
2022-10-18T10:44:30.958Z,7.75
2022-10-18T10:47:00.090Z,7.72
2022-10-18T10:49:40.946Z,8.50
2022-10-18T10:52:28.653Z,7.28
2022-10-18T10:55:17.022Z,9.13
2022-10-18T10:57:49.742Z,8.55
2022-10-18T11:00:39.059Z,8.50
2022-10-18T11:03:27.997Z,9.55
2022-10-18T11:05:58.175Z,9.63
2022-10-18T11:08:33.171Z,9.93
2022-10-18T11:11:20.684Z,9.63
2022-10-18T11:14:13.767Z,14.50
2022-10-18T11:17:23.042Z,12.90
2022-10-18T11:20:10.064Z,11.68
2022-10-18T11:22:56.496Z,11.95
2022-10-18T11:25:48.770Z,14.57
2022-10-18T11:28:54.888Z,14.05
2022-10-18T11:31:36.208Z,12.98
2022-10-18T11:34:15.110Z,13.70
2022-10-18T11:36:54.990Z,15.63
2022-10-18T11:39:24.434Z,20.08
2022-10-18T11:42:10.705Z,16.70
2022-10-18T11:44:56.586Z,15.82
2022-10-18T11:47:58.789Z,20.70
2022-10-18T11:50:41.140Z,18.60
2022-10-18T11:53:29.283Z,15.50
2022-10-18T11:56:19.113Z,19.90
2022-10-18T11:59:02.345Z,21.20
2022-10-18T12:02:01.868Z,20.50
2022-10-18T12:04:49.123Z,21.10
2022-10-18T12:07:42.372Z,20.48
2022-10-18T12:10:26.225Z,21.75
2022-10-18T12:13:13.389Z,22.67
2022-10-18T12:15:42.019Z,20.48
2022-10-18T12:18:20.325Z,24.73
2022-10-18T12:20:57.207Z,24.15
2022-10-18T12:23:44.955Z,23.35
2022-10-18T12:26:14.438Z,25.35
2022-10-18T12:29:00.614Z,32.55
2022-10-18T12:31:37.214Z,26.17
2022-10-18T12:34:38.534Z,24.98
2022-10-18T12:37:43.746Z,21.75
2022-10-18T12:40:36.279Z,24.15
2022-10-18T12:43:11.290Z,30.55
2022-10-18T12:45:57.457Z,31.30
2022-10-18T12:48:30.572Z,33.47
2022-10-18T12:51:04.408Z,34.40
2022-10-18T12:53:34.135Z,28.52
2022-10-18T12:56:42.091Z,25.85
2022-10-18T12:59:16.428Z,23.27
2022-10-18T13:04:39.078Z,21.02
2022-10-18T13:07:08.486Z,19.73
2022-10-18T13:09:38.944Z,21.00
2022-10-18T13:12:09.911Z,14.87
2022-10-18T13:15:07.346Z,21.55
2022-10-18T13:18:31.261Z,20.95
2022-10-18T13:21:16.218Z,20.48
2022-10-18T13:24:10.589Z,17.45
2022-10-18T13:26:41.483Z,14.90
2022-10-18T13:29:42.999Z,16.12
2022-10-18T13:32:36.649Z,15.07
2022-10-18T13:38:00.219Z,14.52
2022-10-18T14:46:31.831Z,15.40
2022-10-18T14:49:02.119Z,16.50
2022-10-18T14:51:36.009Z,12.02
2022-10-18T14:54:04.225Z,13.25
2022-10-18T14:56:37.692Z,14.68
2022-10-18T14:59:16.637Z,14.07
2022-10-18T15:01:55.101Z,15.90
2022-10-18T15:04:27.831Z,11.30
2022-10-18T15:06:57.159Z,8.57
2022-10-18T15:09:25.994Z,8.18
2022-10-18T15:11:58.012Z,10.80
2022-10-18T15:14:28.721Z,10.85
2022-10-18T15:17:35.743Z,8.75
2022-10-18T15:20:25.410Z,9.65
2022-10-18T15:22:53.799Z,11.80
2022-10-18T15:25:32.117Z,8.85
2022-10-18T15:28:01.800Z,8.38
2022-10-18T15:30:38.835Z,8.52
2022-10-18T15:33:10.110Z,6.03
2022-10-18T15:35:39.209Z,6.03
2022-10-18T15:38:25.951Z,7.97
2022-10-18T15:40:55.034Z,8.50
2022-10-18T15:43:28.619Z,5.87
2022-10-18T15:46:03.223Z,5.15
2022-10-18T15:48:35.973Z,5.43
2022-10-18T15:51:31.728Z,5.70
2022-10-18T15:53:59.459Z,4.87
2022-10-18T15:56:38.515Z,4.68
2022-10-18T15:59:22.667Z,4.35
2022-10-18T16:01:51.180Z,5.57
2022-10-18T16:04:28.393Z,4.37
2022-10-18T16:06:57.262Z,4.80
2022-10-18T16:09:28.061Z,3.67
2022-10-18T16:11:57.451Z,3.90
2022-10-18T16:14:26.606Z,3.53
2022-10-18T16:16:56.832Z,1.83
2022-10-18T16:19:25.083Z,4.72
2022-10-18T16:21:54.650Z,3.83
2022-10-18T16:24:23.279Z,3.72
2022-10-18T16:26:51.652Z,3.30
2022-10-18T16:29:29.071Z,5.22
2022-10-18T16:31:58.479Z,5.32
2022-10-18T16:34:27.487Z,4.78
2022-10-18T16:36:56.039Z,4.35
2022-10-18T16:39:24.713Z,3.90
2022-10-18T16:41:52.878Z,6.25
2022-10-18T16:44:20.714Z,5.15
2022-10-18T16:46:51.159Z,7.95
2022-10-18T16:49:24.902Z,5.20
2022-10-18T16:51:56.396Z,2.75
2022-10-18T16:54:24.200Z,3.28
2022-10-18T16:56:52.166Z,1.80
2022-10-18T16:59:31.424Z,2.83
2022-10-18T17:02:01.819Z,3.42
2022-10-18T17:04:33.508Z,3.92
2022-10-18T17:07:01.327Z,2.35
2022-10-18T17:09:29.283Z,2.37
2022-10-18T17:11:57.631Z,2.92
2022-10-18T17:14:25.580Z,3.20
2022-10-18T17:16:56.086Z,4.07
2022-10-18T17:19:25.881Z,3.78
2022-10-18T17:22:01.609Z,3.85
2022-10-18T17:24:31.324Z,4.78
2022-10-18T17:26:59.145Z,3.78
2022-10-18T17:29:27.110Z,1.67
2022-10-18T17:31:55.393Z,4.15
2022-10-18T17:34:23.303Z,2.95
2022-10-18T17:36:51.221Z,4.05
2022-10-18T17:39:19.662Z,2.83
2022-10-18T17:41:47.456Z,2.05
2022-10-18T17:44:15.338Z,4.25
2022-10-18T17:46:43.550Z,3.10
2022-10-18T17:49:11.352Z,1.77
2022-10-18T17:51:39.219Z,3.53
2022-10-18T17:54:08.226Z,1.95
2022-10-18T17:56:36.213Z,3.37
2022-10-18T17:59:04.038Z,2.20
2022-10-18T18:01:32.293Z,2.58
2022-10-18T18:04:02.636Z,2.80
2022-10-18T18:06:36.667Z,3.42
2022-10-18T18:09:16.380Z,2.58
2022-10-18T18:11:51.823Z,2.80
2022-10-18T18:14:20.403Z,2.42
2022-10-18T18:16:51.238Z,3.55
2022-10-18T18:19:21.644Z,1.98
2022-10-18T18:21:54.204Z,3.17
2022-10-18T18:24:26.177Z,2.00
2022-10-18T18:26:58.002Z,1.15
2022-10-18T18:29:27.686Z,1.20
2022-10-18T18:31:56.019Z,1.23
2022-10-18T18:34:23.971Z,4.00
2022-10-18T18:36:53.213Z,3.60
2022-10-18T18:39:24.753Z,3.20
2022-10-18T18:41:53.585Z,1.98
2022-10-18T18:44:22.488Z,2.00
2022-10-18T18:46:50.407Z,1.95
2022-10-18T18:49:21.343Z,2.33
2022-10-18T18:51:52.498Z,1.98
2022-10-18T18:54:22.294Z,2.17
2022-10-18T18:56:50.797Z,2.42
2022-10-18T18:59:18.723Z,2.10
2022-10-18T19:01:46.857Z,2.03
2022-10-18T19:04:15.424Z,2.35
2022-10-18T19:06:46.967Z,0.80
2022-10-18T19:09:22.448Z,2.65
2022-10-18T19:11:55.569Z,1.40
2022-10-18T19:14:25.703Z,1.85
2022-10-18T19:16:55.346Z,1.75
2022-10-18T19:19:24.878Z,1.67
2022-10-18T19:21:57.911Z,2.62
2022-10-18T19:24:28.029Z,3.72
2022-10-18T19:27:01.530Z,3.80
2022-10-18T19:29:32.075Z,3.42
2022-10-18T19:32:03.130Z,3.15
2022-10-18T19:34:32.727Z,3.67
2022-10-18T19:37:01.278Z,3.20
2022-10-18T19:39:31.565Z,3.25
2022-10-18T19:42:03.533Z,4.53
2022-10-18T19:44:33.034Z,5.05
2022-10-18T19:47:01.358Z,7.28
2022-10-18T19:49:29.393Z,4.37
2022-10-18T19:51:57.590Z,3.53
2022-10-18T19:54:25.813Z,2.62
2022-10-18T19:56:53.696Z,3.45
2022-10-18T19:59:23.168Z,2.15
2022-10-18T20:01:51.480Z,3.25
2022-10-18T20:04:19.780Z,1.65
2022-10-18T20:06:47.896Z,3.15
2022-10-18T20:09:20.801Z,3.17
2022-10-18T20:11:49.382Z,3.17
2022-10-18T20:14:17.198Z,2.40
2022-10-18T20:16:48.280Z,4.65
2022-10-18T20:19:16.493Z,2.20
2022-10-18T20:21:44.426Z,1.95
2022-10-18T20:24:15.643Z,1.65
2022-10-18T20:26:44.039Z,2.62
2022-10-18T20:29:12.042Z,2.85
2022-10-18T20:31:40.130Z,1.27
2022-10-18T20:34:11.528Z,1.98
2022-10-18T20:36:43.312Z,2.10
2022-10-18T20:39:11.600Z,2.90
2022-10-18T20:41:42.518Z,1.98
2022-10-18T20:44:14.308Z,1.87
2022-10-18T20:46:44.255Z,2.40
2022-10-18T20:49:15.129Z,1.80
2022-10-18T20:51:43.423Z,2.00
2022-10-18T20:54:11.949Z,4.15
2022-10-18T20:56:40.287Z,2.65
2022-10-18T20:59:10.201Z,2.28
2022-10-18T21:01:39.466Z,2.67
2022-10-18T21:04:09.360Z,3.05
2022-10-18T21:06:43.023Z,4.40
2022-10-18T21:09:19.636Z,4.28
2022-10-18T21:11:50.454Z,2.25
2022-10-18T21:14:20.476Z,2.05
2022-10-18T21:16:49.731Z,2.33
2022-10-18T21:19:22.367Z,3.37
2022-10-18T21:24:22.404Z,3.65
2022-10-18T21:26:53.700Z,1.70
2022-10-18T21:29:27.424Z,2.62
2022-10-18T21:31:58.366Z,2.30
2022-10-18T21:34:26.863Z,1.75
2022-10-18T21:36:55.280Z,2.33
2022-10-18T21:41:57.919Z,1.80
2022-10-18T21:44:25.833Z,2.67
2022-10-18T21:46:55.273Z,3.60
2022-10-18T21:49:25.294Z,2.10
2022-10-18T21:51:56.058Z,2.85
2022-10-18T21:54:24.380Z,1.87
2022-10-18T21:56:52.283Z,2.83
2022-10-18T21:59:20.285Z,2.90
2022-10-18T22:01:48.452Z,2.60
2022-10-18T22:04:22.515Z,3.65
2022-10-18T22:06:51.099Z,3.87
2022-10-18T22:09:21.386Z,4.35
2022-10-18T22:11:52.430Z,3.22
2022-10-18T22:14:21.365Z,3.65
2022-10-18T22:16:49.309Z,3.75
2022-10-18T22:19:17.326Z,5.30
2022-10-18T22:21:48.080Z,2.78
2022-10-18T22:24:15.941Z,2.62
2022-10-18T22:26:45.276Z,3.72
2022-10-18T22:29:16.785Z,2.50
2022-10-18T22:31:54.660Z,3.15
2022-10-18T22:34:29.114Z,3.28
2022-10-18T22:36:57.047Z,3.33
2022-10-18T22:39:28.086Z,3.60
2022-10-18T22:41:57.554Z,2.97
2022-10-18T22:44:25.860Z,3.87
2022-10-18T22:46:53.751Z,2.92
2022-10-18T22:49:21.574Z,3.50
2022-10-18T22:51:49.844Z,2.85
2022-10-18T22:54:17.936Z,3.83
2022-10-18T22:56:45.630Z,3.60
2022-10-18T22:59:13.994Z,4.75
2022-10-18T23:01:41.853Z,4.53
2022-10-18T23:04:10.827Z,5.25
2022-10-18T23:06:40.949Z,2.97
2022-10-18T23:09:11.422Z,3.65
2022-10-18T23:11:42.660Z,3.08
2022-10-18T23:14:10.840Z,3.60
2022-10-18T23:16:39.099Z,4.57
2022-10-18T23:19:07.030Z,2.97
2022-10-18T23:21:35.241Z,2.87
2022-10-18T23:24:03.759Z,2.55
2022-10-18T23:26:32.212Z,3.78
2022-10-18T23:29:00.478Z,5.28
2022-10-18T23:31:31.360Z,3.00
2022-10-18T23:34:01.718Z,4.53
2022-10-18T23:36:31.216Z,4.95
2022-10-18T23:38:59.391Z,2.30
2022-10-18T23:41:27.322Z,3.37
2022-10-18T23:43:55.731Z,3.00
2022-10-18T23:46:23.999Z,2.50
2022-10-18T23:48:55.053Z,3.70
2022-10-18T23:51:23.345Z,5.00
2022-10-18T23:53:51.115Z,2.20
2022-10-18T23:56:18.851Z,2.97
2022-10-18T23:58:47.084Z,3.80
